Archers Lodge, North Carolina
Current Conditions -  °F | °C
As of 4:35 PM on Thursday 18 Dec 2014 (Local Time) from KJNX Reporting Station
Overcast Overcast  
Wind Chill: 50°   Ceiling: 9000
Heat Index: 50°   Visibility: 10mi
Dew Point: 28°   Wind: 3mph
Humidity: 43%   Direction: 210°SSW
Pressure: 30.08"   Gusts: NA
Location:  35.6101°N, 78.4715°W
Report Text: KJNX 182135Z AUTO 21003KT 10SM OVC090 10/M02 A3008 RMK AO2
Loading
Personal Weather Stations






























Interactive Weather Map New forecast layout! Learn more

10-Day Weather Forecast

Advertisements
Track Severe Weather on mobile